Terminal Aerodrome Forecast
Issued by NWS

Home | Current Version | Previous Version | Graphics & Text | Print | Product List | Glossary On
Versions: 1 2 3 4 5 6 7 8 9 10 11 12 13
899
FTUS43 KBIS 202320
TAFDIK
TAF
KDIK 202320Z 2100/2124 12008KT P6SM FEW120 SCT200
     FM210700 15007KT P6SM VCSH SCT100 BKN140
     FM210900 16007KT P6SM SCT090 BKN200
     FM211500 25008KT P6SM BKN200
     FM211800 34012KT P6SM FEW200=

USA.gov is the U.S. government's official web portal to all federal, state and local government web resources and services.